GMFF/FEZ METAR and TAF weather

Enter ICAO airport designator
Station Type Date Time Source
GMFF METAR 2024/04/17 19:30 UTC NOAA

GMFF 171930Z 30006KT CAVOK 22/10 Q1014 NOSIG


Station Type Date Time Source
GMFF Decoded METAR 2024/04/17 19:30 UTC NOAA

Fes-Sais, Morocco (GMFF) 33-56N 004-59W 579M
Apr 17, 2024 - 03:30 PM EDT / 2024.04.17 1930 UTC
Wind: from the WNW (300 degrees) at 7 MPH (6 KT):0
Visibility: greater than 7 mile(s):0
Temperature: 71 F (22 C)
Dew Point: 50 F (10 C)
Relative Humidity: 46%
Pressure (altimeter): 29.94 in. Hg (1014 hPa)
ob: GMFF 171930Z 30006KT CAVOK 22/10 Q1014 NOSIG
cycle: 19

Station Type Date Time Source
GMFF TAF 2024/04/17 18:18 UTC NOAA